Terminal Aerodrome Forecast
Issued by NWS

Home | Current Version | Previous Version | Text Only | Print | Product List | Glossary On
Versions: 1 2 3 4 5 6 7 8 9 10 11 12 13 14 15 16 17 18 19 20
000
FTUS43 KMQT 301100
TAFSAW
TAF
KSAW 301135Z 3012/3112 VRB03KT 1SM -RA BR OVC003
     FM301500 01006KT 1/2SM -DZ FG OVC002
     FM301700 36008KT 3SM -DZ BR OVC004
     FM302100 35007KT P6SM OVC009
     FM310100 34005KT 4SM BR OVC006
     FM310500 36003KT 1SM BR OVC003
      AMD LTD TO CLD VIS AND WIND 3102/3110=

USA.gov is the U.S. government's official web portal to all federal, state and local government web resources and services.